createdAt,value
2023-02-09T00:01:57.958Z,14.4
2023-02-09T00:08:18.004Z,14.4
2023-02-09T00:14:40.942Z,4.2
2023-02-09T00:21:01.130Z,4.2
2023-02-09T00:27:24.062Z,3.6
2023-02-09T00:33:44.176Z,3.6
2023-02-09T00:40:07.110Z,4.9
2023-02-09T00:46:26.948Z,4.9
2023-02-09T00:52:50.038Z,11.6
2023-02-09T00:59:10.054Z,11.6
2023-02-09T01:05:33.043Z,8.4
2023-02-09T01:11:53.058Z,8.4
2023-02-09T01:18:16.110Z,17.3
2023-02-09T01:24:36.114Z,17.3
2023-02-09T01:30:59.019Z,6.6
2023-02-09T01:37:18.950Z,6.6
2023-02-09T01:43:41.897Z,11.4
2023-02-09T01:50:02.002Z,11.4
2023-02-09T01:56:25.045Z,13.7
2023-02-09T02:02:45.073Z,13.7
2023-02-09T02:09:08.043Z,9.1
2023-02-09T02:15:28.190Z,9.1
2023-02-09T02:21:51.002Z,10.9
2023-02-09T02:28:10.992Z,10.9
2023-02-09T02:34:33.945Z,3.9
2023-02-09T02:40:53.982Z,3.9
2023-02-09T02:47:16.916Z,11.4
2023-02-09T02:53:36.961Z,11.4
2023-02-09T02:59:59.900Z,10.6
2023-02-09T03:06:19.933Z,10.6
2023-02-09T03:12:42.953Z,8.1
2023-02-09T03:19:02.989Z,8.1
2023-02-09T03:25:25.937Z,7.1
2023-02-09T03:31:46.186Z,7.1
2023-02-09T03:38:09.059Z,6.7
2023-02-09T03:44:29.002Z,6.7
2023-02-09T03:50:51.959Z,6
2023-02-09T03:57:11.961Z,6
2023-02-09T04:03:34.952Z,8.6
2023-02-09T04:26:41.856Z,4.6
2023-02-09T04:33:01.900Z,4.6
2023-02-09T04:39:24.934Z,4.9
2023-02-09T04:45:44.963Z,4.9
2023-02-09T04:52:07.982Z,6
2023-02-09T04:58:28.014Z,6
2023-02-09T05:04:50.997Z,7.7
2023-02-09T05:11:10.947Z,7.7
2023-02-09T05:17:34.019Z,9.9
2023-02-09T05:23:53.998Z,9.9
2023-02-09T05:30:16.919Z,13.6
2023-02-09T05:36:36.951Z,13.6
2023-02-09T05:42:59.939Z,9.8
2023-02-09T05:49:19.979Z,9.8
2023-02-09T05:55:42.915Z,18.6
2023-02-09T06:02:02.962Z,18.6
2023-02-09T06:08:25.934Z,8.3
2023-02-09T06:14:45.908Z,8.3
2023-02-09T06:21:08.961Z,12.4
2023-02-09T06:27:29.113Z,12.4
2023-02-09T06:33:51.964Z,8.3
2023-02-09T06:40:11.958Z,8.3
2023-02-09T06:46:35.027Z,11.4
2023-02-09T06:52:55.041Z,11.4
2023-02-09T06:59:17.991Z,8.1
2023-02-09T07:05:37.932Z,8.1
2023-02-09T07:12:00.939Z,13
2023-02-09T07:18:20.987Z,13
2023-02-09T07:24:44.015Z,9.1
2023-02-09T07:31:04.028Z,9.1
2023-02-09T07:37:26.981Z,18.3
2023-02-09T07:43:46.983Z,18.3
2023-02-09T07:50:09.963Z,27.6
2023-02-09T07:56:30.556Z,27.6
2023-02-09T08:02:53.944Z,22.5
2023-02-09T08:09:13.986Z,22.5
2023-02-09T08:15:37.132Z,17.2
2023-02-09T08:21:56.956Z,17.2
2023-02-09T08:28:20.125Z,6.2
2023-02-09T08:34:39.999Z,6.2
2023-02-09T08:41:03.053Z,7.1
2023-02-09T08:47:23.045Z,7.1
2023-02-09T08:53:45.944Z,5.8
2023-02-09T09:00:05.943Z,5.8
2023-02-09T09:06:29.051Z,8.7
2023-02-09T09:12:49.332Z,8.7
2023-02-09T09:19:12.287Z,10.2
2023-02-09T09:34:43.877Z,9.3
2023-02-09T09:41:03.907Z,9.3
2023-02-09T09:47:26.931Z,22.4
2023-02-09T09:53:46.963Z,22.4
2023-02-09T10:00:09.937Z,22.4
2023-02-09T10:06:30.170Z,22.4
2023-02-09T10:12:52.944Z,7.9
2023-02-09T10:19:13.083Z,7.9
2023-02-09T10:25:35.934Z,20.1
2023-02-09T10:31:56.159Z,20.1
2023-02-09T10:38:19.040Z,13.3
2023-02-09T10:44:40.298Z,13.3
2023-02-09T10:51:02.072Z,17.4
2023-02-09T10:57:22.044Z,17.4
2023-02-09T11:03:45.035Z,14.3
2023-02-09T11:10:05.046Z,14.3
2023-02-09T11:16:27.995Z,18.7
2023-02-09T11:22:48.003Z,18.7
2023-02-09T11:29:10.994Z,15.3
2023-02-09T11:35:30.998Z,15.3
2023-02-09T11:41:54.003Z,11.8
2023-02-09T11:48:14.009Z,11.8
2023-02-09T11:54:36.938Z,15.8
2023-02-09T12:01:06.981Z,15.8
2023-02-09T12:07:19.970Z,8.7
2023-02-09T12:13:40.932Z,8.7
2023-02-09T12:20:03.960Z,12.3
2023-02-09T12:26:24.008Z,12.3
2023-02-09T12:32:46.941Z,12
2023-02-09T12:39:06.905Z,12
2023-02-09T12:45:30.003Z,3.5
2023-02-09T12:51:49.929Z,3.5
2023-02-09T12:58:12.953Z,3.1
2023-02-09T13:04:32.977Z,3.1
2023-02-09T13:10:55.925Z,9.3
2023-02-09T13:17:15.972Z,9.3
2023-02-09T13:23:38.980Z,7.1
2023-02-09T13:29:58.947Z,7.1
2023-02-09T13:36:24.900Z,4.7
2023-02-09T13:42:41.964Z,4.7
2023-02-09T13:49:04.974Z,7.7
2023-02-09T13:55:24.928Z,7.7
2023-02-09T14:01:48.006Z,10.4
2023-02-09T14:08:08.010Z,10.4
2023-02-09T14:14:30.928Z,21
2023-02-09T14:20:51.091Z,21
2023-02-09T14:27:13.964Z,16.1
2023-02-09T14:50:03.121Z,3.6
2023-02-09T14:56:22.982Z,3.6
2023-02-09T15:02:45.948Z,12.4
2023-02-09T15:09:06.052Z,12.4
2023-02-09T15:15:29.002Z,10.4
2023-02-09T15:22:01.979Z,10.4
2023-02-09T15:28:12.063Z,7.9
2023-02-09T15:34:31.937Z,7.9
2023-02-09T15:40:54.972Z,16
2023-02-09T15:47:14.945Z,16
2023-02-09T15:53:38.004Z,7
2023-02-09T15:59:57.993Z,7
2023-02-09T16:06:20.989Z,6.4
2023-02-09T16:12:41.026Z,6.4
2023-02-09T16:19:04.183Z,7.6
2023-02-09T16:25:24.050Z,7.6
2023-02-09T16:31:47.068Z,6.3
2023-02-09T16:38:07.120Z,6.3
2023-02-09T16:44:29.964Z,1.9
2023-02-09T16:50:49.909Z,1.9
2023-02-09T16:57:12.961Z,15.6
2023-02-09T17:03:32.926Z,15.6
2023-02-09T17:09:56.213Z,5.9
2023-02-09T17:16:15.994Z,5.9
2023-02-09T17:22:38.955Z,15.1
2023-02-09T17:28:59.075Z,15.1
2023-02-09T17:35:38.382Z,8.2
2023-02-09T17:41:41.975Z,8.2
2023-02-09T17:48:05.054Z,6.3
2023-02-09T17:54:25.064Z,6.3
2023-02-09T18:00:48.118Z,8.7
2023-02-09T18:07:08.049Z,8.7
2023-02-09T18:13:31.062Z,9.3
2023-02-09T18:19:51.066Z,9.3
2023-02-09T18:26:13.963Z,6.3
2023-02-09T18:32:33.962Z,6.3
2023-02-09T18:38:56.933Z,14.3
2023-02-09T18:45:16.981Z,14.3
2023-02-09T18:51:39.929Z,22.7
2023-02-09T18:58:00.004Z,22.7
2023-02-09T19:04:22.944Z,14.5
2023-02-09T19:10:42.916Z,14.5
2023-02-09T19:17:06.269Z,8.7
2023-02-09T19:23:26.028Z,8.7
2023-02-09T19:29:48.900Z,7.4
2023-02-09T19:36:09.133Z,7.4
2023-02-09T19:42:31.917Z,19.1
2023-02-09T19:59:15.601Z,16.1
2023-02-09T20:05:38.431Z,37.2
2023-02-09T20:11:57.925Z,37.2
2023-02-09T20:18:21.017Z,37.2
2023-02-09T20:24:41.002Z,37.2
2023-02-09T20:31:04.050Z,7.8
2023-02-09T20:37:23.985Z,7.8
2023-02-09T20:43:46.931Z,17.3
2023-02-09T20:50:06.983Z,17.3
2023-02-09T20:56:29.976Z,18.1
2023-02-09T21:02:49.977Z,18.1
2023-02-09T21:09:12.966Z,9.1
2023-02-09T21:15:32.939Z,9.1
2023-02-09T21:21:56.137Z,9.8
2023-02-09T21:28:16.086Z,9.8
2023-02-09T21:34:38.979Z,16.6
2023-02-09T21:40:58.956Z,16.6
2023-02-09T21:47:21.931Z,26.9
2023-02-09T21:53:42.322Z,26.9
2023-02-09T22:00:05.041Z,10.1
2023-02-09T22:06:25.111Z,10.1
2023-02-09T22:12:47.957Z,15.2
2023-02-09T22:19:07.928Z,15.2
2023-02-09T22:25:30.924Z,17.6
2023-02-09T22:31:50.959Z,17.6
2023-02-09T22:38:14.004Z,18.1
2023-02-09T22:44:34.153Z,18.1
2023-02-09T22:50:57.193Z,8.7
2023-02-09T22:57:16.961Z,8.7
2023-02-09T23:20:25.949Z,33.2
2023-02-09T23:26:45.993Z,33.2
2023-02-09T23:33:09.054Z,33.2
2023-02-09T23:39:29.068Z,33.2
2023-02-09T23:45:52.413Z,10
2023-02-09T23:52:12.039Z,10
2023-02-09T23:58:35.234Z,10.1
